Time;durP1;ratioP1;P1;durP2;ratioP2;P2;SDS_P1;SDS_P2;PMS_P1;PMS_P2;Temp;Humidity;BMP_temperature;BMP_pressure;BME280_temperature;BME280_humidity;BME280_pressure;Samples;Min_cycle;Max_cycle;Signal;HPM_P1;HPM_P2
2020/12/25 00:01:59;;;;;;;;;;;;;;;2.04;100.00;99073.91;5048735;28;19920;-85
2020/12/25 00:04:24;;;;;;;;;;;;;;;2.04;100.00;99091.69;5063500;28;19978;-85
2020/12/25 00:06:49;;;;;;;;;;;;;;;2.04;100.00;99089.13;5059843;28;20367;-86
2020/12/25 00:09:15;;;;;;;;;;;;;;;2.03;100.00;99094.19;5048154;28;20891;-85
2020/12/25 00:11:40;;;;;;;;;;;;;;;2.11;100.00;99089.16;5054339;28;19974;-86
2020/12/25 00:14:05;;;;;;;;;;;;;;;2.06;100.00;99090.00;5056658;28;19921;-85
2020/12/25 00:16:31;;;;;;;;;;;;;;;2.05;100.00;99090.84;5057496;28;19920;-86
2020/12/25 00:18:57;;;;;;;;;;;;;;;2.03;100.00;99091.66;5044780;28;19974;-86
2020/12/25 00:21:22;;;;;;;;;;;;;;;2.08;100.00;99095.94;5029076;28;20428;-85
2020/12/25 00:23:48;;;;;;;;;;;;;;;2.04;100.00;99099.28;5036704;28;20329;-85
2020/12/25 00:26:23;;;;;;;;;;;;;;;2.07;100.00;99103.53;5035754;28;19916;-86
2020/12/25 00:28:48;;;;;;;;;;;;;;;2.13;100.00;99101.03;5044860;28;19986;-85
2020/12/25 00:31:21;;;;;;;;;;;;;;;2.06;100.00;99109.47;5039953;28;20385;-85
2020/12/25 00:33:46;;;;;;;;;;;;;;;2.09;100.00;99117.94;5037005;28;19923;-86
2020/12/25 00:36:11;;;;;;;;;;;;;;;2.12;100.00;99114.56;5036624;28;19939;-85
2020/12/25 00:38:37;;;;;;;;;;;;;;;2.09;100.00;99115.41;5037687;28;20044;-86
2020/12/25 00:41:02;;;;;;;;;;;;;;;2.02;100.00;99121.31;5029293;28;19920;-85
2020/12/25 00:43:27;;;;;;;;;;;;;;;2.04;100.00;99132.31;5035542;28;19924;-85
2020/12/25 00:45:53;;;;;;;;;;;;;;;2.04;100.00;99129.78;5028456;28;19917;-85
2020/12/25 00:48:18;;;;;;;;;;;;;;;1.99;100.00;99141.63;5035841;28;19921;-85
2020/12/25 00:50:43;;;;;;;;;;;;;;;1.97;100.00;99148.38;5034888;28;19984;-85
2020/12/25 00:53:09;;;;;;;;;;;;;;;2.02;100.00;99146.69;5045939;28;19998;-85
2020/12/25 00:55:34;;;;;;;;;;;;;;;1.94;100.00;99153.44;5029031;28;19995;-85
2020/12/25 00:57:59;;;;;;;;;;;;;;;1.98;100.00;99155.13;5038644;28;19922;-84
2020/12/25 01:00:25;;;;;;;;;;;;;;;1.96;100.00;99153.44;5045635;28;19916;-85
2020/12/25 01:02:50;;;;;;;;;;;;;;;1.98;100.00;99157.69;5029195;28;19970;-85
2020/12/25 01:05:16;;;;;;;;;;;;;;;2.02;100.00;99151.78;5036957;28;20031;-85
2020/12/25 01:07:41;;;;;;;;;;;;;;;1.97;100.00;99157.69;5029181;28;20019;-85
2020/12/25 01:10:06;;;;;;;;;;;;;;;1.99;100.00;99163.63;5035724;28;20051;-85
2020/12/25 01:12:32;;;;;;;;;;;;;;;1.93;100.00;99163.59;5029764;28;20286;-85
2020/12/25 01:14:57;;;;;;;;;;;;;;;1.98;100.00;99160.22;5030465;28;20547;-84
2020/12/25 01:17:22;;;;;;;;;;;;;;;1.91;100.00;99178.81;5033182;28;20373;-84
2020/12/25 01:19:48;;;;;;;;;;;;;;;1.96;100.00;99177.16;5057743;28;19931;-84
2020/12/25 01:22:13;;;;;;;;;;;;;;;1.92;100.00;99188.16;5069026;28;19982;-85
2020/12/25 01:24:38;;;;;;;;;;;;;;;1.83;100.00;99185.56;5070418;28;19916;-85
2020/12/25 01:27:04;;;;;;;;;;;;;;;1.87;100.00;99192.31;5061303;28;20377;-85
2020/12/25 01:29:29;;;;;;;;;;;;;;;1.76;100.00;99199.91;5069122;28;19920;-85
2020/12/25 01:31:54;;;;;;;;;;;;;;;1.72;100.00;99192.25;5053768;28;20006;-84
2020/12/25 01:34:20;;;;;;;;;;;;;;;1.77;100.00;99203.28;5058169;28;20317;-85
2020/12/25 01:36:45;;;;;;;;;;;;;;;1.68;100.00;99202.38;5070543;28;19919;-84
2020/12/25 01:39:10;;;;;;;;;;;;;;;1.70;100.00;99204.06;5059080;28;20328;-85
2020/12/25 01:41:36;;;;;;;;;;;;;;;1.68;100.00;99207.44;5060312;28;19916;-84
2020/12/25 01:44:01;;;;;;;;;;;;;;;1.72;100.00;99213.41;5069572;28;19913;-85
2020/12/25 01:46:27;;;;;;;;;;;;;;;1.75;100.00;99218.50;5060648;28;20548;-85
2020/12/25 01:48:54;;;;;;;;;;;;;;;1.68;100.00;99222.66;5062067;28;20363;-83
2020/12/25 01:51:19;;;;;;;;;;;;;;;1.60;100.00;99224.31;5080746;28;20477;-83
2020/12/25 01:53:47;;;;;;;;;;;;;;;1.54;100.00;99228.50;5064114;28;19920;-83
2020/12/25 01:56:12;;;;;;;;;;;;;;;1.59;100.00;99237.00;5080278;28;19959;-83
2020/12/25 01:58:39;;;;;;;;;;;;;;;1.49;100.00;99237.78;5063829;28;20430;-83
2020/12/25 02:01:07;;;;;;;;;;;;;;;1.57;100.00;99239.50;5080387;28;20430;-83
2020/12/25 02:03:33;;;;;;;;;;;;;;;1.59;100.00;99232.75;5079727;28;19916;-83
2020/12/25 02:06:01;;;;;;;;;;;;;;;1.57;100.00;99246.28;5063162;28;19916;-83
2020/12/25 02:08:26;;;;;;;;;;;;;;;1.59;100.00;99252.22;5080323;28;19912;-84
2020/12/25 02:10:53;;;;;;;;;;;;;;;1.54;100.00;99247.09;5079088;28;19923;-85
2020/12/25 02:13:18;;;;;;;;;;;;;;;1.62;100.00;99248.03;5079843;28;19916;-83
2020/12/25 02:15:44;;;;;;;;;;;;;;;1.68;100.00;99249.75;5079111;28;19912;-83
2020/12/25 02:18:09;;;;;;;;;;;;;;;1.72;100.00;99248.09;5079247;28;19985;-83
2020/12/25 02:20:35;;;;;;;;;;;;;;;1.59;100.00;99250.53;5079062;28;20304;-83
2020/12/25 02:23:05;;;;;;;;;;;;;;;1.54;100.00;99259.78;5063013;28;19916;-83
2020/12/25 02:25:31;;;;;;;;;;;;;;;1.46;100.00;99258.91;5079094;28;19919;-82
2020/12/25 02:27:58;;;;;;;;;;;;;;;1.43;100.00;99256.31;5078947;28;19912;-83
2020/12/25 02:30:24;;;;;;;;;;;;;;;1.52;100.00;99258.94;5061945;28;19912;-82
2020/12/25 02:32:50;;;;;;;;;;;;;;;1.63;100.00;99259.03;5078782;28;19924;-83
2020/12/25 02:35:16;;;;;;;;;;;;;;;1.46;100.00;99263.97;5062346;28;19912;-82
2020/12/25 02:37:41;;;;;;;;;;;;;;;1.50;100.00;99263.13;5079781;28;20424;-85
2020/12/25 02:40:07;;;;;;;;;;;;;;;1.54;100.00;99259.78;5080265;28;19957;-85
2020/12/25 02:42:33;;;;;;;;;;;;;;;1.51;100.00;99269.94;5063904;28;20304;-83
2020/12/25 02:44:58;;;;;;;;;;;;;;;1.57;100.00;99269.97;5063072;28;19912;-83
2020/12/25 02:47:24;;;;;;;;;;;;;;;1.64;100.00;99276.81;5079880;28;19919;-83
2020/12/25 02:49:49;;;;;;;;;;;;;;;1.68;100.00;99273.44;5080745;28;19977;-85
2020/12/25 02:52:15;;;;;;;;;;;;;;;1.93;100.00;99271.09;5081089;28;19912;-82
2020/12/25 02:54:41;;;;;;;;;;;;;;;1.86;100.00;99266.81;5081418;28;19912;-83
2020/12/25 02:57:06;;;;;;;;;;;;;;;1.88;100.00;99268.53;5080445;28;19912;-83
2020/12/25 02:59:31;;;;;;;;;;;;;;;1.66;100.00;99279.34;5063899;28;20619;-82
2020/12/25 03:01:57;;;;;;;;;;;;;;;1.60;100.00;99277.63;5063456;28;19913;-83
2020/12/25 03:04:22;;;;;;;;;;;;;;;1.71;100.00;99287.88;5080323;28;19982;-82
2020/12/25 03:06:47;;;;;;;;;;;;;;;1.52;100.00;99286.00;5063320;28;20409;-82
2020/12/25 03:09:13;;;;;;;;;;;;;;;1.52;100.00;99289.38;5062969;28;20327;-85
2020/12/25 03:11:38;;;;;;;;;;;;;;;1.49;100.00;99294.44;5079176;28;20333;-82
2020/12/25 03:14:04;;;;;;;;;;;;;;;1.30;100.00;99310.31;5061576;28;19924;-83
2020/12/25 03:16:30;;;;;;;;;;;;;;;1.21;100.00;99314.47;5061831;28;20333;-85
2020/12/25 03:18:55;;;;;;;;;;;;;;;1.18;100.00;99311.88;5051597;28;20001;-84
2020/12/25 03:21:20;;;;;;;;;;;;;;;1.29;100.00;99308.63;5060226;28;19973;-84
2020/12/25 03:23:46;;;;;;;;;;;;;;;1.13;100.00;99313.53;5059271;28;19912;-83
2020/12/25 03:26:12;;;;;;;;;;;;;;;0.95;100.00;99313.31;5067274;28;20008;-83
2020/12/25 03:28:38;;;;;;;;;;;;;;;0.93;100.00;99325.13;5051192;28;19919;-84
2020/12/25 03:31:03;;;;;;;;;;;;;;;0.89;100.00;99326.78;5068489;28;19923;-84
2020/12/25 03:33:28;;;;;;;;;;;;;;;0.85;100.00;99332.66;5052229;28;19920;-83
2020/12/25 03:35:54;;;;;;;;;;;;;;;0.85;100.00;99331.81;5067577;28;20276;-84
2020/12/25 03:38:19;;;;;;;;;;;;;;;0.79;100.00;99325.81;5051091;28;19920;-84
2020/12/25 03:40:44;;;;;;;;;;;;;;;0.83;100.00;99327.56;5051340;28;19918;-83
2020/12/25 03:43:10;;;;;;;;;;;;;;;0.77;100.00;99334.22;5051496;28;19920;-84
2020/12/25 03:45:35;;;;;;;;;;;;;;;0.80;100.00;99335.13;5050764;28;19980;-84
2020/12/25 03:48:00;;;;;;;;;;;;;;;0.72;100.00;99330.78;5059581;28;19935;-83
2020/12/25 03:50:27;;;;;;;;;;;;;;;0.82;100.00;99336.00;5067700;28;19916;-83
2020/12/25 03:52:52;;;;;;;;;;;;;;;0.81;100.00;99334.28;5068493;28;19935;-83
2020/12/25 03:55:17;;;;;;;;;;;;;;;0.82;100.00;99341.06;5051232;28;19919;-83
2020/12/25 03:57:43;;;;;;;;;;;;;;;0.87;100.00;99336.06;5050746;28;20038;-83
2020/12/25 04:00:08;;;;;;;;;;;;;;;0.87;100.00;99345.31;5050161;28;20006;-84
2020/12/25 04:02:33;;;;;;;;;;;;;;;0.76;100.00;99347.75;5061036;28;19954;-83
2020/12/25 04:04:59;;;;;;;;;;;;;;;0.74;100.00;99359.56;5058402;28;20387;-84
2020/12/25 04:07:24;;;;;;;;;;;;;;;0.73;100.00;99361.25;5057268;28;20373;-83
2020/12/25 04:09:49;;;;;;;;;;;;;;;0.78;100.00;99367.22;5050812;28;20303;-83
2020/12/25 04:12:15;;;;;;;;;;;;;;;0.81;100.00;99376.53;5051339;28;19916;-84
2020/12/25 04:14:40;;;;;;;;;;;;;;;0.79;100.00;99379.03;5041186;28;19923;-83
2020/12/25 04:17:06;;;;;;;;;;;;;;;0.79;100.00;99383.25;5050146;28;19923;-84
2020/12/25 04:19:32;;;;;;;;;;;;;;;0.83;100.00;99385.88;5051345;28;21030;-84
2020/12/25 04:21:58;;;;;;;;;;;;;;;0.89;100.00;99384.22;5068520;28;19969;-83
2020/12/25 04:24:23;;;;;;;;;;;;;;;0.69;100.00;99382.31;5051558;28;19916;-83
2020/12/25 04:26:48;;;;;;;;;;;;;;;0.89;100.00;99384.22;5051026;28;19965;-83
2020/12/25 04:29:14;;;;;;;;;;;;;;;0.91;100.00;99393.56;5067965;28;19923;-83
2020/12/25 04:31:39;;;;;;;;;;;;;;;0.85;100.00;99392.66;5084899;28;20003;-83
2020/12/25 04:34:04;;;;;;;;;;;;;;;0.88;100.00;99397.75;5051027;28;20355;-83
2020/12/25 04:36:30;;;;;;;;;;;;;;;0.95;100.00;99399.53;5051551;28;20022;-83
2020/12/25 04:38:55;;;;;;;;;;;;;;;0.77;100.00;99408.59;5068845;28;19916;-84
2020/12/25 04:41:21;;;;;;;;;;;;;;;0.74;100.00;99410.25;5056775;28;20011;-83
2020/12/25 04:43:46;;;;;;;;;;;;;;;0.72;100.00;99412.75;5050753;28;19920;-83
2020/12/25 04:46:11;;;;;;;;;;;;;;;0.61;100.00;99421.88;5050885;28;19912;-83
2020/12/25 04:48:37;;;;;;;;;;;;;;;0.52;100.00;99421.75;5058028;28;19920;-84
2020/12/25 04:51:03;;;;;;;;;;;;;;;0.47;100.00;99430.97;5054305;28;19920;-83
2020/12/25 04:53:29;;;;;;;;;;;;;;;0.57;100.00;99430.25;5063497;28;19966;-83
2020/12/25 04:55:54;;;;;;;;;;;;;;;0.60;100.00;99440.47;5055625;28;19959;-83
2020/12/25 04:58:20;;;;;;;;;;;;;;;0.59;100.00;99437.09;5047590;28;19920;-83
2020/12/25 05:01:00;;;;;;;;;;;;;;;0.54;100.00;99438.66;5071866;28;19976;-84
2020/12/25 05:03:25;;;;;;;;;;;;;;;0.57;100.00;99437.88;5070727;28;20377;-83
2020/12/25 05:05:50;;;;;;;;;;;;;;;0.47;100.00;99446.16;5051761;28;19919;-83
2020/12/25 05:08:19;;;;;;;;;;;;;;;0.41;100.00;99442.72;5069638;28;19916;-83
2020/12/25 05:10:44;;;;;;;;;;;;;;;0.42;100.00;99448.63;5067956;28;19922;-84
2020/12/25 05:13:10;;;;;;;;;;;;;;;0.37;100.00;99455.31;5053014;28;20428;-82
2020/12/25 05:15:35;;;;;;;;;;;;;;;0.45;100.00;99455.41;5069352;28;20238;-83
2020/12/25 05:18:00;;;;;;;;;;;;;;;0.46;100.00;99460.53;5052801;28;19960;-84
2020/12/25 05:20:26;;;;;;;;;;;;;;;0.33;100.00;99459.47;5058906;28;19956;-83
2020/12/25 05:23:02;;;;;;;;;;;;;;;0.28;100.00;99463.59;5068156;28;20369;-82
2020/12/25 05:25:27;;;;;;;;;;;;;;;0.24;100.00;99455.94;5051052;28;19999;-84
2020/12/25 05:27:53;;;;;;;;;;;;;;;0.19;100.00;99458.38;5051754;28;20433;-83
2020/12/25 05:30:19;;;;;;;;;;;;;;;0.13;100.00;99460.81;5060965;28;19917;-83
2020/12/25 05:32:44;;;;;;;;;;;;;;;0.10;100.00;99466.66;5052063;28;19923;-82
2020/12/25 05:35:11;;;;;;;;;;;;;;;0.14;100.00;99467.59;5059195;28;19915;-83
2020/12/25 05:37:37;;;;;;;;;;;;;;;0.07;100.00;99474.22;5069829;28;19924;-83
2020/12/25 05:40:06;;;;;;;;;;;;;;;0.03;100.00;99474.16;5069027;28;19920;-83
2020/12/25 05:42:32;;;;;;;;;;;;;;;0.07;100.00;99471.69;5050506;28;19934;-83
2020/12/25 05:44:57;;;;;;;;;;;;;;;0.09;100.00;99474.22;5053018;28;19995;-82
2020/12/25 05:47:22;;;;;;;;;;;;;;;0.11;100.00;99472.59;5069258;28;19949;-83
2020/12/25 05:49:48;;;;;;;;;;;;;;;0.13;100.00;99481.06;5052354;28;19924;-83
2020/12/25 05:52:13;;;;;;;;;;;;;;;0.13;100.00;99481.06;5052374;28;20361;-83
2020/12/25 05:54:40;;;;;;;;;;;;;;;0.22;100.00;99485.44;5068738;28;20448;-83
2020/12/25 05:57:05;;;;;;;;;;;;;;;0.19;100.00;99488.78;5068955;28;20281;-83
2020/12/25 05:59:31;;;;;;;;;;;;;;;0.22;100.00;99496.41;5068495;28;19916;-83
2020/12/25 06:01:58;;;;;;;;;;;;;;;0.13;100.00;99499.63;5067496;28;19916;-82
2020/12/25 06:04:26;;;;;;;;;;;;;;;0.13;100.00;99501.31;5061110;28;19916;-83
2020/12/25 06:06:52;;;;;;;;;;;;;;;0.22;100.00;99501.47;5068140;28;19997;-83
2020/12/25 06:09:18;;;;;;;;;;;;;;;0.15;100.00;99504.75;5068530;28;19978;-83
2020/12/25 06:11:50;;;;;;;;;;;;;;;0.17;100.00;99508.16;5067677;28;19927;-83
2020/12/25 06:14:16;;;;;;;;;;;;;;;0.02;100.00;99512.94;5041901;28;20003;-83
2020/12/25 06:16:53;;;;;;;;;;;;;;;0.09;100.00;99519.81;5068002;28;20011;-83
2020/12/25 06:19:21;;;;;;;;;;;;;;;0.04;100.00;99521.41;5079003;28;19927;-83
2020/12/25 06:21:56;;;;;;;;;;;;;;;0.19;100.00;99521.69;5056286;28;19929;-83
2020/12/25 06:24:22;;;;;;;;;;;;;;;0.07;100.00;99513.88;5066624;28;19959;-83
2020/12/25 06:26:53;;;;;;;;;;;;;;;-0.04;100.00;99514.53;5051161;28;20431;-83
2020/12/25 06:29:19;;;;;;;;;;;;;;;0.06;100.00;99515.53;5059928;28;19919;-83
2020/12/25 06:31:46;;;;;;;;;;;;;;;-0.06;100.00;99522.94;5061853;28;19916;-83
2020/12/25 06:34:11;;;;;;;;;;;;;;;-0.10;100.00;99534.66;5051515;28;19970;-82
2020/12/25 06:36:40;;;;;;;;;;;;;;;-0.14;100.00;99532.88;5050293;28;19920;-83
2020/12/25 06:39:10;;;;;;;;;;;;;;;-0.14;100.00;99542.16;5066321;28;19920;-83
2020/12/25 06:41:38;;;;;;;;;;;;;;;-0.14;100.00;99543.00;5068112;28;19959;-83
2020/12/25 06:44:07;;;;;;;;;;;;;;;-0.20;100.00;99542.06;5067049;28;19920;-83
2020/12/25 06:46:36;;;;;;;;;;;;;;;-0.21;100.00;99551.31;5064103;28;19927;-83
2020/12/25 06:49:07;;;;;;;;;;;;;;;-0.21;100.00;99561.44;5066416;28;20011;-82
2020/12/25 06:51:45;;;;;;;;;;;;;;;-0.14;100.00;99557.34;5067620;28;20624;-82
2020/12/25 06:54:20;;;;;;;;;;;;;;;-0.06;100.00;99560.91;5067300;28;19935;-83
2020/12/25 06:56:53;;;;;;;;;;;;;;;-0.03;100.00;99566.00;5042498;28;20392;-82
2020/12/25 06:59:19;;;;;;;;;;;;;;;0.02;100.00;99558.50;5067567;28;20484;-82
2020/12/25 07:01:45;;;;;;;;;;;;;;;-0.04;100.00;99555.03;5067466;28;19920;-82
2020/12/25 07:04:25;;;;;;;;;;;;;;;-0.02;100.00;99558.47;5067393;28;19970;-82
2020/12/25 07:06:52;;;;;;;;;;;;;;;0.07;100.00;99562.84;5066388;28;19916;-82
2020/12/25 07:09:17;;;;;;;;;;;;;;;0.08;100.00;99566.22;5067206;28;19981;-82
2020/12/25 07:11:43;;;;;;;;;;;;;;;0.04;100.00;99561.94;5039983;28;19981;-82
2020/12/25 07:14:11;;;;;;;;;;;;;;;0.07;100.00;99569.56;5066726;28;19920;-82
2020/12/25 07:16:37;;;;;;;;;;;;;;;-0.09;100.00;99570.94;5058187;28;19920;-82
2020/12/25 07:19:03;;;;;;;;;;;;;;;-0.14;100.00;99573.38;5052564;28;20938;-82
2020/12/25 07:21:29;;;;;;;;;;;;;;;-0.27;100.00;99576.50;5048118;28;19927;-81
2020/12/25 07:23:54;;;;;;;;;;;;;;;-0.38;100.00;99585.56;5065354;28;19912;-81
2020/12/25 07:26:20;;;;;;;;;;;;;;;-0.51;100.00;99586.94;5030092;28;19921;-81
2020/12/25 07:28:45;;;;;;;;;;;;;;;-0.50;100.00;99586.13;5030106;28;19994;-81
2020/12/25 07:31:11;;;;;;;;;;;;;;;-0.43;100.00;99593.06;5047570;28;19912;-81
2020/12/25 07:33:36;;;;;;;;;;;;;;;-0.52;100.00;99591.16;5030473;28;19928;-80
2020/12/25 07:36:06;;;;;;;;;;;;;;;-0.57;100.00;99602.88;5030599;28;19920;-81
2020/12/25 07:38:31;;;;;;;;;;;;;;;-0.48;100.00;99598.00;5046600;28;20267;-81
2020/12/25 07:40:57;;;;;;;;;;;;;;;-0.18;100.00;99591.91;5047858;28;20002;-81
2020/12/25 07:43:22;;;;;;;;;;;;;;;-0.04;100.00;99594.69;5047478;28;19916;-81
2020/12/25 07:45:47;;;;;;;;;;;;;;;0.02;100.00;99606.63;5047355;28;19913;-81
2020/12/25 07:48:13;;;;;;;;;;;;;;;0.04;100.00;99599.91;5047241;28;19920;-81
2020/12/25 07:50:39;;;;;;;;;;;;;;;0.29;100.00;99607.16;5047163;28;19921;-81
2020/12/25 07:53:11;;;;;;;;;;;;;;;0.37;100.00;99600.56;5046841;28;19924;-81
2020/12/25 07:55:37;;;;;;;;;;;;;;;0.81;100.00;99600.50;5029898;28;19927;-81
2020/12/25 07:58:02;;;;;;;;;;;;;;;1.02;99.31;99609.28;5030312;28;19921;-81
2020/12/25 08:00:29;;;;;;;;;;;;;;;1.26;98.51;99606.28;5030770;28;19974;-81
2020/12/25 08:02:54;;;;;;;;;;;;;;;1.08;99.08;99609.38;5047609;28;19924;-81
2020/12/25 08:05:20;;;;;;;;;;;;;;;1.06;98.96;99615.28;5031053;28;19916;-81
2020/12/25 08:07:45;;;;;;;;;;;;;;;1.01;98.80;99605.06;5047822;28;19928;-81
2020/12/25 08:10:12;;;;;;;;;;;;;;;1.11;98.95;99614.50;5032581;28;19916;-81
2020/12/25 08:12:39;;;;;;;;;;;;;;;0.79;99.70;99622.41;5050422;28;19916;-81
2020/12/25 08:15:05;;;;;;;;;;;;;;;0.54;100.00;99617.75;5064727;28;19920;-81
2020/12/25 08:17:30;;;;;;;;;;;;;;;0.74;100.00;99624.03;5064927;28;19916;-81
2020/12/25 08:19:55;;;;;;;;;;;;;;;0.52;100.00;99632.91;5048958;28;21371;-81
2020/12/25 08:22:21;;;;;;;;;;;;;;;0.51;100.00;99623.63;5049738;28;20304;-81
2020/12/25 08:24:46;;;;;;;;;;;;;;;0.56;100.00;99624.56;5069896;28;19916;-81
2020/12/25 08:27:16;;;;;;;;;;;;;;;0.34;100.00;99623.31;5070568;28;20432;-81
2020/12/25 08:29:41;;;;;;;;;;;;;;;0.25;100.00;99633.28;5071416;28;20568;-81
2020/12/25 08:32:07;;;;;;;;;;;;;;;0.36;100.00;99636.84;5089430;28;20006;-81
2020/12/25 08:34:33;;;;;;;;;;;;;;;0.35;100.00;99640.22;5069322;28;20019;-81
2020/12/25 08:36:58;;;;;;;;;;;;;;;0.33;100.00;99641.84;5070620;28;19987;-82
2020/12/25 08:39:28;;;;;;;;;;;;;;;0.40;100.00;99641.16;5053629;28;19923;-82
2020/12/25 08:41:54;;;;;;;;;;;;;;;0.33;100.00;99641.84;5071467;28;19920;-82
2020/12/25 08:44:19;;;;;;;;;;;;;;;0.32;100.00;99649.41;5069370;28;19916;-82
2020/12/25 08:46:45;;;;;;;;;;;;;;;0.29;100.00;99640.09;5070400;28;19920;-82
2020/12/25 08:49:10;;;;;;;;;;;;;;;0.31;100.00;99647.72;5070790;28;19916;-82
2020/12/25 08:51:39;;;;;;;;;;;;;;;0.24;100.00;99646.75;5069291;28;19977;-82
2020/12/25 08:54:04;;;;;;;;;;;;;;;0.36;100.00;99652.03;5069428;28;19948;-82
2020/12/25 08:56:30;;;;;;;;;;;;;;;0.30;100.00;99662.06;5070938;28;19956;-82
2020/12/25 08:59:05;;;;;;;;;;;;;;;0.25;100.00;99656.06;5053388;28;19916;-81
2020/12/25 09:01:34;;;;;;;;;;;;;;;0.27;100.00;99662.00;5053514;28;19927;-82
2020/12/25 09:03:59;;;;;;;;;;;;;;;0.25;100.00;99656.06;5069648;28;19919;-82
2020/12/25 09:06:25;;;;;;;;;;;;;;;0.23;100.00;99645.06;5069947;28;20460;-82
2020/12/25 09:08:50;;;;;;;;;;;;;;;0.24;100.00;99661.94;5053909;28;19916;-82
2020/12/25 09:11:17;;;;;;;;;;;;;;;0.29;100.00;99659.50;5053079;28;19920;-82
2020/12/25 09:13:43;;;;;;;;;;;;;;;0.18;100.00;99677.00;5075524;28;19985;-81
2020/12/25 09:16:08;;;;;;;;;;;;;;;0.22;100.00;99676.25;5058890;28;19924;-82
2020/12/25 09:18:34;;;;;;;;;;;;;;;0.20;100.00;99675.38;5049149;28;19924;-82
2020/12/25 09:21:00;;;;;;;;;;;;;;;0.26;100.00;99669.59;5053086;28;19912;-82
2020/12/25 09:23:26;;;;;;;;;;;;;;;0.16;100.00;99674.47;5051948;28;20003;-82
2020/12/25 09:25:51;;;;;;;;;;;;;;;0.27;100.00;99681.41;5061007;28;20011;-83
2020/12/25 09:28:16;;;;;;;;;;;;;;;0.35;100.00;99670.63;5050691;28;19923;-84
2020/12/25 09:30:42;;;;;;;;;;;;;;;0.52;100.00;99672.63;5060157;28;19920;-84
2020/12/25 09:33:07;;;;;;;;;;;;;;;0.38;100.00;99677.41;5066237;28;19935;-83
2020/12/25 09:35:32;;;;;;;;;;;;;;;0.49;100.00;99683.56;5049192;28;19916;-84
2020/12/25 09:37:57;;;;;;;;;;;;;;;0.57;100.00;99689.63;5067880;28;20422;-83
2020/12/25 09:40:23;;;;;;;;;;;;;;;0.65;100.00;99687.25;5059178;28;19955;-83
2020/12/25 09:42:48;;;;;;;;;;;;;;;1.02;100.00;99680.28;5049001;28;19926;-83
2020/12/25 09:45:13;;;;;;;;;;;;;;;1.20;100.00;99683.13;5068712;28;20369;-83
2020/12/25 09:47:39;;;;;;;;;;;;;;;0.98;100.00;99673.44;5059224;28;19920;-83
2020/12/25 09:50:04;;;;;;;;;;;;;;;1.07;100.00;99673.59;5051122;28;19923;-83
2020/12/25 09:52:30;;;;;;;;;;;;;;;1.43;100.00;99672.50;5047772;28;19919;-83
2020/12/25 09:54:55;;;;;;;;;;;;;;;1.29;100.00;99684.97;5055552;28;20471;-83
2020/12/25 09:57:20;;;;;;;;;;;;;;;1.15;100.00;99681.38;5065746;28;19924;-83
2020/12/25 09:59:46;;;;;;;;;;;;;;;1.14;100.00;99685.59;5050860;28;19920;-83
2020/12/25 10:02:12;;;;;;;;;;;;;;;1.08;100.00;99684.63;5067374;28;19916;-83
2020/12/25 10:04:37;;;;;;;;;;;;;;;1.21;100.00;99689.94;5055235;28;20380;-83
2020/12/25 10:07:02;;;;;;;;;;;;;;;1.17;100.00;99689.88;5057023;28;19923;-83
2020/12/25 10:09:28;;;;;;;;;;;;;;;1.08;100.00;99688.00;5065999;28;19951;-83
2020/12/25 10:11:54;;;;;;;;;;;;;;;0.81;100.00;99691.75;5064226;28;19924;-83
2020/12/25 10:14:20;;;;;;;;;;;;;;;0.78;100.00;99696.78;5050718;28;19946;-83
2020/12/25 10:16:45;;;;;;;;;;;;;;;0.64;100.00;99693.16;5066171;28;19924;-83
2020/12/25 10:19:10;;;;;;;;;;;;;;;0.62;100.00;99694.78;5037183;28;19966;-83
2020/12/25 10:21:36;;;;;;;;;;;;;;;0.59;100.00;99688.00;5029890;28;19928;-83
2020/12/25 10:24:01;;;;;;;;;;;;;;;0.50;100.00;99689.47;5030030;28;19960;-83
2020/12/25 10:26:26;;;;;;;;;;;;;;;0.47;100.00;99684.34;5046559;28;20512;-83
2020/12/25 10:28:52;;;;;;;;;;;;;;;0.56;100.00;99689.59;5030652;28;19932;-82
2020/12/25 10:31:17;;;;;;;;;;;;;;;0.56;100.00;99684.53;5029024;28;20975;-83
2020/12/25 10:33:42;;;;;;;;;;;;;;;0.63;100.00;99676.22;5045391;28;19936;-83
2020/12/25 10:36:08;;;;;;;;;;;;;;;0.75;100.00;99673.94;5035579;28;20436;-83
2020/12/25 10:38:33;;;;;;;;;;;;;;;0.84;100.00;99670.66;5034717;28;19928;-83
2020/12/25 10:41:00;;;;;;;;;;;;;;;1.08;100.00;99675.34;5035053;28;19920;-83
2020/12/25 10:43:26;;;;;;;;;;;;;;;1.11;100.00;99675.38;5033154;28;20409;-84
2020/12/25 10:45:51;;;;;;;;;;;;;;;1.44;100.00;99674.25;5027875;28;19920;-83
2020/12/25 10:48:16;;;;;;;;;;;;;;;1.82;100.00;99672.25;5043830;28;19939;-83
2020/12/25 10:50:42;;;;;;;;;;;;;;;1.90;100.00;99672.38;5036249;28;19931;-84
2020/12/25 10:53:07;;;;;;;;;;;;;;;2.12;100.00;99660.78;5044367;28;20385;-83
2020/12/25 10:55:32;;;;;;;;;;;;;;;2.16;100.00;99661.69;5027565;28;19920;-83
2020/12/25 10:57:58;;;;;;;;;;;;;;;2.17;100.00;99663.41;5028274;28;19917;-83
2020/12/25 11:00:23;;;;;;;;;;;;;;;2.48;100.00;99659.53;5043710;28;20727;-83
2020/12/25 11:02:48;;;;;;;;;;;;;;;2.48;100.00;99659.53;5029490;28;19923;-83
2020/12/25 11:05:14;;;;;;;;;;;;;;;2.68;100.00;99662.28;5028145;28;20297;-83
2020/12/25 11:07:39;;;;;;;;;;;;;;;2.53;100.00;99664.66;5028770;28;19934;-83
2020/12/25 11:10:05;;;;;;;;;;;;;;;2.60;99.94;99668.97;5030494;28;19916;-84
2020/12/25 11:12:30;;;;;;;;;;;;;;;2.79;99.83;99675.13;5040271;28;19916;-84
2020/12/25 11:14:56;;;;;;;;;;;;;;;1.97;100.00;99673.31;5047691;28;19999;-83
2020/12/25 11:17:21;;;;;;;;;;;;;;;1.79;100.00;99671.34;5030114;28;20432;-84
2020/12/25 11:19:47;;;;;;;;;;;;;;;1.38;100.00;99663.97;5064446;28;19923;-85
2020/12/25 11:22:16;;;;;;;;;;;;;;;1.59;100.00;99669.38;5056948;28;19920;-84
2020/12/25 11:24:42;;;;;;;;;;;;;;;1.43;100.00;99672.50;5057941;28;19916;-84
2020/12/25 11:27:07;;;;;;;;;;;;;;;1.50;100.00;99665.84;5037914;28;19943;-85
2020/12/25 11:29:33;;;;;;;;;;;;;;;1.90;100.00;99667.28;5054575;28;19920;-84
2020/12/25 11:31:59;;;;;;;;;;;;;;;1.75;100.00;99670.44;5065381;28;19931;-84
2020/12/25 11:34:24;;;;;;;;;;;;;;;1.23;100.00;99674.72;5057968;28;19924;-85
2020/12/25 11:36:50;;;;;;;;;;;;;;;0.86;100.00;99678.31;5056489;28;19916;-84
2020/12/25 11:39:15;;;;;;;;;;;;;;;0.72;100.00;99683.97;5066300;28;20882;-85
2020/12/25 11:41:41;;;;;;;;;;;;;;;0.76;100.00;99677.31;5064914;28;19919;-85
2020/12/25 11:44:06;;;;;;;;;;;;;;;1.03;100.00;99671.88;5066446;28;19916;-84
2020/12/25 11:46:31;;;;;;;;;;;;;;;1.35;100.00;99679.16;5057437;28;20293;-85
2020/12/25 11:48:57;;;;;;;;;;;;;;;0.96;100.00;99680.22;5058165;28;19915;-84
2020/12/25 11:51:23;;;;;;;;;;;;;;;0.86;100.00;99683.38;5048392;28;20381;-84
2020/12/25 11:53:49;;;;;;;;;;;;;;;1.50;100.00;99681.06;5048610;28;20018;-85
2020/12/25 11:56:18;;;;;;;;;;;;;;;1.93;100.00;99679.16;5050122;28;20353;-85
2020/12/25 11:58:44;;;;;;;;;;;;;;;1.91;100.00;99676.59;5048773;28;19912;-84
2020/12/25 12:01:09;;;;;;;;;;;;;;;1.63;100.00;99671.13;5054640;28;19927;-84
2020/12/25 12:03:34;;;;;;;;;;;;;;;1.93;100.00;99669.84;5047956;28;19920;-84
2020/12/25 12:06:00;;;;;;;;;;;;;;;2.43;100.00;99656.94;5052630;28;19916;-84
2020/12/25 12:08:26;;;;;;;;;;;;;;;2.21;100.00;99668.53;5055804;28;19916;-84
2020/12/25 12:10:51;;;;;;;;;;;;;;;1.86;100.00;99663.00;5054644;28;19923;-84
2020/12/25 12:13:16;;;;;;;;;;;;;;;1.45;100.00;99660.69;5049002;28;19934;-85
2020/12/25 12:15:42;;;;;;;;;;;;;;;1.59;100.00;99661.75;5046921;28;19928;-84
2020/12/25 12:18:07;;;;;;;;;;;;;;;1.51;100.00;99657.41;5059637;28;20428;-85
2020/12/25 12:20:33;;;;;;;;;;;;;;;1.48;100.00;99662.44;5028986;28;19916;-84
2020/12/25 12:22:58;;;;;;;;;;;;;;;1.25;100.00;99656.19;5038056;28;20258;-83
2020/12/25 12:25:24;;;;;;;;;;;;;;;1.57;100.00;99660.03;5028803;28;19965;-82
2020/12/25 12:27:49;;;;;;;;;;;;;;;1.71;100.00;99671.25;5027981;28;19920;-84
2020/12/25 12:30:14;;;;;;;;;;;;;;;1.70;100.00;99667.00;5045273;28;19917;-83
2020/12/25 12:32:40;;;;;;;;;;;;;;;1.59;100.00;99661.75;5027906;28;20031;-83
2020/12/25 12:35:05;;;;;;;;;;;;;;;1.28;100.00;99664.66;5028540;28;19936;-84
2020/12/25 12:37:31;;;;;;;;;;;;;;;1.44;100.00;99659.00;5028743;28;19918;-82
2020/12/25 12:39:56;;;;;;;;;;;;;;;1.19;100.00;99661.16;5028906;28;19917;-83